Time;durP1;ratioP1;P1;durP2;ratioP2;P2;SDS_P1;SDS_P2;PMS_P1;PMS_P2;Temp;Humidity;BMP_temperature;BMP_pressure;BME280_temperature;BME280_humidity;BME280_pressure;Samples;Min_cycle;Max_cycle;Signal;HPM_P1;HPM_P2
2021/05/09 00:06:09;;;;;;;10.77;8.10;;;;;;;3.83;100.00;100887.72;20914436;28;20230;-70
2021/05/09 00:16:10;;;;;;;17.73;9.40;;;;;;;3.80;100.00;100882.50;20951905;28;20238;-57
2021/05/09 00:26:10;;;;;;;18.77;9.93;;;;;;;3.69;100.00;100879.28;20834738;28;20469;-59
2021/05/09 00:36:11;;;;;;;9.07;6.60;;;;;;;3.59;100.00;100876.06;20817448;28;20275;-59
2021/05/09 00:46:11;;;;;;;10.57;7.00;;;;;;;3.62;100.00;100890.94;20784984;28;20262;-58
2021/05/09 00:56:13;;;;;;;10.13;7.65;;;;;;;3.58;100.00;100886.63;20801963;28;20463;-67
2021/05/09 01:06:14;;;;;;;11.23;8.57;;;;;;;3.55;100.00;100870.88;20803959;28;20303;-72
2021/05/09 01:26:11;;;;;;;13.73;10.90;;;;;;;3.46;100.00;100879.91;20989808;27;20573;-69
2021/05/09 01:46:07;;;;;;;14.47;11.00;;;;;;;3.18;100.00;100907.88;21022720;27;20611;-56
2021/05/09 01:56:07;;;;;;;13.20;9.83;;;;;;;3.08;100.00;100904.63;21040291;28;20386;-57
2021/05/09 02:06:08;;;;;;;16.53;11.60;;;;;;;3.09;100.00;100905.47;21018488;28;20935;-57
2021/05/09 02:16:08;;;;;;;16.70;11.63;;;;;;;3.11;100.00;100904.53;21038825;28;20312;-56
2021/05/09 02:26:09;;;;;;;14.27;9.80;;;;;;;3.08;100.00;100917.78;21019606;28;20464;-57
2021/05/09 02:36:09;;;;;;;16.60;11.43;;;;;;;3.02;100.00;100923.19;21033877;28;20222;-56
2021/05/09 02:46:10;;;;;;;14.30;11.33;;;;;;;2.99;100.00;100928.56;21024977;28;20214;-57
2021/05/09 03:06:06;;;;;;;15.47;10.63;;;;;;;3.19;100.00;100915.75;20871463;27;20602;-58
2021/05/09 03:16:07;;;;;;;14.00;10.10;;;;;;;3.46;100.00;100931.81;20856003;28;21242;-57
2021/05/09 03:45:58;;;;;;;15.90;11.87;;;;;;;6.14;92.72;100930.56;20792872;27;20594;-74
2021/05/09 03:55:59;;;;;;;16.10;11.80;;;;;;;7.31;87.00;100919.81;20774268;28;20335;-74
2021/05/09 04:05:59;;;;;;;15.88;11.90;;;;;;;8.42;82.31;100932.72;20787876;28;20227;-69
2021/05/09 04:16:00;;;;;;;13.53;12.10;;;;;;;8.87;80.33;100925.28;20779119;28;20288;-61
2021/05/09 04:26:00;;;;;;;16.50;10.80;;;;;;;9.20;81.12;100916.56;20779739;28;20219;-65
2021/05/09 04:36:01;;;;;;;12.13;10.43;;;;;;;9.57;79.68;100904.94;20784649;28;20220;-67
2021/05/09 04:46:01;;;;;;;12.03;10.83;;;;;;;9.73;78.51;100901.44;20771297;28;20282;-61
2021/05/09 04:56:07;;;;;;;11.20;9.97;;;;;;;10.03;76.60;100917.63;20740107;28;20825;-63
2021/05/09 05:16:15;;;;;;;10.70;8.23;;;;;;;10.18;73.16;100912.44;20805711;27;20580;-73
2021/05/09 05:26:16;;;;;;;9.40;7.83;;;;;;;10.11;73.80;100903.91;20760225;28;20220;-69
2021/05/09 05:36:17;;;;;;;8.27;6.83;;;;;;;10.32;72.75;100904.59;20788821;28;20262;-59
2021/05/09 05:46:18;;;;;;;8.87;7.70;;;;;;;10.59;72.31;100897.75;20777844;28;20220;-58
2021/05/09 05:56:18;;;;;;;8.00;7.20;;;;;;;10.88;70.49;100893.44;20780598;28;20603;-66
2021/05/09 06:06:19;;;;;;;8.17;7.00;;;;;;;11.14;69.01;100900.84;20783079;28;20224;-59
2021/05/09 06:16:19;;;;;;;8.57;7.07;;;;;;;11.40;67.93;100895.81;20785006;28;20682;-63
2021/05/09 06:26:20;;;;;;;6.60;5.63;;;;;;;11.75;68.65;100886.59;20737527;28;20225;-58
2021/05/09 06:36:20;;;;;;;8.27;7.07;;;;;;;12.09;65.13;100874.69;20711645;28;20229;-59
2021/05/09 06:46:21;;;;;;;7.13;5.97;;;;;;;12.35;65.31;100867.72;20730764;28;20225;-70
2021/05/09 06:56:22;;;;;;;6.73;6.03;;;;;;;12.58;62.84;100867.13;20711363;28;20229;-60
2021/05/09 07:06:22;;;;;;;5.27;4.77;;;;;;;12.87;64.18;100856.38;20743258;28;20297;-59
2021/05/09 07:16:25;;;;;;;6.87;4.90;;;;;;;13.12;60.21;100850.25;20715153;28;20236;-59
2021/05/09 07:26:25;;;;;;;4.80;4.30;;;;;;;13.45;59.67;100872.16;20721093;28;20257;-59
2021/05/09 07:36:25;;;;;;;4.90;3.93;;;;;;;13.88;60.12;100867.41;20733165;28;20224;-60
2021/05/09 07:46:26;;;;;;;4.17;3.73;;;;;;;14.27;58.90;100857.50;20738003;28;20492;-69
2021/05/09 07:56:26;;;;;;;3.83;3.43;;;;;;;14.66;56.74;100835.88;20726666;28;20226;-61
2021/05/09 08:06:27;;;;;;;3.87;3.20;;;;;;;15.00;57.25;100836.06;20704779;28;20316;-67
2021/05/09 08:16:28;;;;;;;4.70;4.00;;;;;;;15.54;56.21;100830.19;20724292;28;20228;-66
2021/05/09 08:26:29;;;;;;;4.17;3.63;;;;;;;16.37;55.46;100810.13;20704912;28;20229;-62
2021/05/09 08:36:29;;;;;;;3.57;3.27;;;;;;;16.93;53.53;100802.81;20737684;28;20224;-62
2021/05/09 08:46:30;;;;;;;3.40;3.10;;;;;;;16.76;53.42;100822.25;20708790;28;20230;-71
2021/05/09 08:56:30;;;;;;;3.43;3.13;;;;;;;16.53;55.69;100809.75;20727999;28;20216;-76
2021/05/09 09:06:45;;;;;;;3.50;3.20;;;;;;;16.46;51.01;100792.34;20729959;28;20609;-60
2021/05/09 09:16:47;;;;;;;3.60;3.30;;;;;;;16.59;53.83;100793.06;20721258;28;20241;-63
2021/05/09 09:26:50;;;;;;;3.20;2.83;;;;;;;16.81;55.17;100787.66;20707544;28;20683;-63
2021/05/09 09:37:01;;;;;;;3.00;2.80;;;;;;;17.00;50.89;100796.94;20713105;28;20233;-58
2021/05/09 09:47:02;;;;;;;3.67;3.30;;;;;;;17.11;53.61;100786.09;20716217;28;20240;-58
2021/05/09 09:57:25;;;;;;;5.20;2.80;;;;;;;17.35;50.10;100775.94;20704827;28;20937;-57
2021/05/09 10:07:26;;;;;;;2.73;2.53;;;;;;;17.29;53.78;100744.06;20733535;28;20224;-57
2021/05/09 10:17:27;;;;;;;2.53;2.33;;;;;;;17.67;54.50;100775.88;20731642;28;20221;-59
2021/05/09 10:27:39;;;;;;;1.90;1.70;;;;;;;17.93;52.03;100757.41;20744984;28;20639;-69
2021/05/09 10:37:54;;;;;;;2.47;2.27;;;;;;;18.13;54.14;100744.84;20721115;28;20224;-61
2021/05/09 10:48:13;;;;;;;3.40;2.37;;;;;;;18.35;49.23;100756.28;20723544;28;20287;-65
2021/05/09 10:58:16;;;;;;;1.90;1.70;;;;;;;18.53;52.00;100732.16;20724427;28;20256;-59
2021/05/09 11:08:20;;;;;;;2.40;2.20;;;;;;;18.69;51.04;100729.81;20715584;28;20302;-59
2021/05/09 11:18:21;;;;;;;2.20;2.10;;;;;;;18.80;51.11;100722.56;20729346;28;20226;-63
2021/05/09 11:28:27;;;;;;;2.33;2.17;;;;;;;18.95;49.66;100710.31;20707583;28;20628;-78
2021/05/09 11:38:28;;;;;;;2.53;2.33;;;;;;;19.08;52.72;100698.19;20727465;28;20214;-65
2021/05/09 11:48:28;;;;;;;2.00;1.90;;;;;;;19.25;51.05;100674.09;20706566;28;20235;-58
2021/05/09 11:58:29;;;;;;;2.20;2.07;;;;;;;19.37;51.59;100678.34;20725712;28;20321;-71
2021/05/09 12:08:31;;;;;;;1.90;1.80;;;;;;;19.52;50.83;100676.06;20710817;28;20252;-72
2021/05/09 12:18:31;;;;;;;1.23;1.23;;;;;;;19.67;50.67;100667.31;20732154;28;20230;-58
2021/05/09 12:28:32;;;;;;;1.00;1.00;;;;;;;19.86;50.53;100655.53;20716370;28;20717;-58
2021/05/09 12:38:33;;;;;;;1.33;1.23;;;;;;;20.02;49.84;100646.78;20710090;28;20245;-58
2021/05/09 12:48:34;;;;;;;1.30;1.20;;;;;;;20.19;49.85;100637.81;20722524;28;20222;-58
2021/05/09 12:58:34;;;;;;;0.97;0.97;;;;;;;20.40;49.49;100619.44;20699532;28;20697;-58
2021/05/09 13:08:35;;;;;;;1.50;1.40;;;;;;;20.46;49.29;100607.13;20721301;28;20228;-58
2021/05/09 13:18:35;;;;;;;1.50;1.40;;;;;;;20.46;48.36;100602.56;20700717;28;20224;-62
2021/05/09 13:28:36;;;;;;;1.50;1.33;;;;;;;20.57;48.04;100600.59;20722153;28;20697;-59
2021/05/09 13:38:36;;;;;;;1.67;1.20;;;;;;;20.67;46.82;100599.50;20747849;28;20705;-58
2021/05/09 13:48:36;;;;;;;2.23;1.00;;;;;;;20.77;48.00;100589.41;20746032;28;20638;-58
2021/05/09 13:58:37;;;;;;;1.90;1.10;;;;;;;20.89;48.46;100581.06;20761983;28;20233;-67
2021/05/09 14:08:38;;;;;;;1.80;1.35;;;;;;;20.95;47.94;100556.84;20737659;28;20313;-78
2021/05/09 14:18:38;;;;;;;1.23;1.13;;;;;;;21.10;47.38;100547.09;20731232;28;20753;-75
2021/05/09 14:28:39;;;;;;;1.70;1.50;;;;;;;21.20;47.28;100547.88;20727541;28;20221;-67
2021/05/09 14:38:39;;;;;;;1.50;1.40;;;;;;;21.29;47.38;100534.31;20720443;28;20221;-70
2021/05/09 14:48:40;;;;;;;2.50;2.20;;;;;;;21.32;47.05;100543.00;20731887;28;20231;-73
2021/05/09 14:58:40;;;;;;;2.07;1.97;;;;;;;21.31;47.20;100532.31;20710329;28;20216;-57
2021/05/09 15:08:41;;;;;;;1.83;1.73;;;;;;;21.19;46.40;100508.16;20752146;28;20590;-57
2021/05/09 15:18:41;;;;;;;1.43;1.33;;;;;;;21.04;46.74;100504.31;20707720;28;20250;-57
2021/05/09 15:28:42;;;;;;;1.40;1.30;;;;;;;20.92;46.48;100488.47;20728631;28;20221;-60
2021/05/09 15:38:43;;;;;;;1.70;1.60;;;;;;;20.87;47.02;100480.84;20711460;28;20488;-57
2021/05/09 15:48:44;;;;;;;1.93;1.73;;;;;;;20.84;47.21;100471.16;20722434;28;20299;-71
2021/05/09 15:58:44;;;;;;;1.77;1.40;;;;;;;20.77;46.85;100472.78;20716550;28;20299;-64
2021/05/09 16:08:46;;;;;;;1.27;1.17;;;;;;;20.89;48.01;100477.97;20713964;28;20226;-58
2021/05/09 16:18:47;;;;;;;1.00;1.00;;;;;;;20.81;48.01;100448.91;20723584;28;20586;-64
2021/05/09 16:28:47;;;;;;;1.53;0.90;;;;;;;20.80;47.93;100458.06;20705194;28;20212;-68
2021/05/09 16:38:48;;;;;;;1.67;1.20;;;;;;;20.71;47.61;100461.75;20723970;28;20535;-65
2021/05/09 16:48:48;;;;;;;1.13;1.03;;;;;;;20.55;48.37;100458.91;20715683;28;20229;-71
2021/05/09 16:58:49;;;;;;;1.33;1.23;;;;;;;20.46;48.80;100456.16;20722475;28;20310;-65
2021/05/09 17:08:49;;;;;;;2.40;1.23;;;;;;;21.92;46.09;100459.50;20703836;28;20229;-58
2021/05/09 17:18:51;;;;;;;1.83;1.13;;;;;;;22.32;45.34;100446.97;20732146;28;20305;-65
2021/05/09 17:28:52;;;;;;;1.30;1.20;;;;;;;22.65;44.97;100453.19;20710618;28;20232;-58
2021/05/09 17:38:52;;;;;;;1.20;1.10;;;;;;;21.41;45.94;100443.44;20708763;28;20212;-58
2021/05/09 17:48:53;;;;;;;1.40;1.30;;;;;;;19.81;47.76;100433.06;20717819;28;20276;-59
2021/05/09 17:58:55;;;;;;;1.67;1.57;;;;;;;18.79;49.02;100445.03;20716653;28;20547;-56
2021/05/09 18:08:57;;;;;;;1.50;1.40;;;;;;;17.96;50.82;100455.56;20717466;28;20233;-57
2021/05/09 18:29:09;;;;;;;2.73;2.00;;;;;;;16.68;53.27;100458.19;20746630;28;20225;-57
2021/05/09 18:39:12;;;;;;;4.73;2.67;;;;;;;16.20;55.10;100458.72;20713564;28;20784;-57
2021/05/09 18:49:13;;;;;;;2.43;2.27;;;;;;;15.79;55.52;100474.84;20743154;28;20224;-57
2021/05/09 18:59:14;;;;;;;2.87;2.43;;;;;;;15.52;56.61;100477.09;20719010;28;20225;-57
2021/05/09 19:09:15;;;;;;;3.10;2.33;;;;;;;15.36;56.24;100478.34;20721026;28;20225;-56
2021/05/09 19:19:15;;;;;;;2.00;1.90;;;;;;;15.27;57.47;100484.47;20725399;28;20696;-76
2021/05/09 19:29:16;;;;;;;2.63;2.43;;;;;;;15.06;57.95;100476.31;20723313;28;20229;-61
2021/05/09 19:39:17;;;;;;;2.80;2.60;;;;;;;14.89;58.30;100478.63;20727902;28;20455;-76
2021/05/09 19:49:18;;;;;;;2.87;2.60;;;;;;;14.76;58.59;100484.97;20706688;28;20266;-58
2021/05/09 19:59:18;;;;;;;2.60;2.40;;;;;;;14.68;59.40;100475.81;20726678;28;20663;-71
2021/05/09 20:09:19;;;;;;;5.63;2.70;;;;;;;14.55;59.75;100469.69;20706451;28;20247;-57
2021/05/09 20:19:19;;;;;;;3.30;2.70;;;;;;;14.46;60.03;100465.91;20721809;28;20224;-56
2021/05/09 20:39:17;;;;;;;3.50;3.20;;;;;;;14.38;60.26;100468.28;20879487;27;21082;-59
2021/05/09 20:49:17;;;;;;;3.57;3.00;;;;;;;14.20;61.14;100470.56;20866784;28;20223;-62
2021/05/09 20:59:18;;;;;;;3.27;2.97;;;;;;;14.12;61.34;100485.56;20858378;28;20219;-68
2021/05/09 21:09:18;;;;;;;3.13;2.83;;;;;;;14.00;62.02;100492.72;20870864;28;20222;-60
2021/05/09 21:19:20;;;;;;;2.53;2.33;;;;;;;13.89;62.91;100504.22;20849997;28;20717;-59
2021/05/09 21:29:21;;;;;;;2.70;2.50;;;;;;;13.78;62.75;100493.44;20870467;28;21106;-59
2021/05/09 21:39:21;;;;;;;3.20;2.90;;;;;;;13.71;63.31;100489.53;20849933;28;20227;-59
2021/05/09 21:49:22;;;;;;;2.63;2.43;;;;;;;13.63;63.62;100492.78;20820033;28;20308;-59
2021/05/09 21:59:22;;;;;;;3.73;2.73;;;;;;;13.48;64.23;100487.69;20799985;28;20221;-59
2021/05/09 22:09:23;;;;;;;2.93;2.60;;;;;;;13.33;65.29;100485.16;20805432;28;20707;-59
2021/05/09 22:19:23;;;;;;;2.40;2.17;;;;;;;13.16;65.73;100466.75;20805671;28;20226;-59
2021/05/09 22:29:24;;;;;;;4.07;2.77;;;;;;;13.06;66.33;100463.00;20796641;28;20661;-59
2021/05/09 22:39:24;;;;;;;2.40;2.20;;;;;;;12.96;66.54;100464.66;20832539;28;20221;-59
2021/05/09 22:49:25;;;;;;;2.95;2.50;;;;;;;12.83;66.78;100466.47;20788787;28;20461;-63
2021/05/09 22:59:26;;;;;;;2.87;2.63;;;;;;;12.60;67.57;100468.13;20807686;28;20217;-67
2021/05/09 23:09:27;;;;;;;2.30;2.10;;;;;;;12.42;68.25;100458.72;20786447;28;20223;-66
2021/05/09 23:20:20;;;;;;;2.37;1.87;;;;;;;12.22;68.60;100473.44;20806785;28;20252;-59
2021/05/09 23:29:48;;;;;;;2.37;2.17;;;;;;;12.09;69.14;100461.88;20782318;28;20236;-63
2021/05/09 23:59:42;;;;;;;2.27;2.07;;;;;;;11.84;70.24;100431.44;20784928;28;20558;-65
